createdAt,value
2022-11-19T00:01:07.058Z,19.70
2022-11-19T00:03:35.513Z,20.40
2022-11-19T00:06:04.805Z,20.30
2022-11-19T00:08:31.260Z,20.80
2022-11-19T00:11:09.862Z,19.77
2022-11-19T00:13:37.956Z,24.07
2022-11-19T00:16:14.731Z,26.00
2022-11-19T00:18:41.505Z,20.83
2022-11-19T00:21:13.076Z,19.53
2022-11-19T00:23:40.299Z,23.57
2022-11-19T00:26:12.495Z,21.07
2022-11-19T00:28:39.605Z,17.20
2022-11-19T00:31:11.427Z,24.23
2022-11-19T00:33:39.007Z,23.57
2022-11-19T00:36:08.297Z,23.57
2022-11-19T00:38:35.337Z,25.33
2022-11-19T00:41:01.895Z,18.77
2022-11-19T00:43:47.188Z,23.17
2022-11-19T00:46:27.091Z,25.37
2022-11-19T00:48:55.914Z,20.43
2022-11-19T00:51:24.164Z,23.73
2022-11-19T00:53:51.016Z,19.97
2022-11-19T00:56:20.210Z,24.00
2022-11-19T00:58:47.029Z,25.83
2022-11-19T01:01:15.091Z,27.47
2022-11-19T01:03:42.765Z,23.87
2022-11-19T01:06:09.643Z,25.17
2022-11-19T01:08:36.362Z,23.73
2022-11-19T01:11:30.842Z,24.90
2022-11-19T01:13:58.861Z,25.83
2022-11-19T01:16:32.493Z,23.17
2022-11-19T01:18:59.272Z,21.80
2022-11-19T01:21:29.139Z,26.53
2022-11-19T01:23:56.657Z,23.33
2022-11-19T01:26:23.564Z,23.90
2022-11-19T01:28:50.372Z,25.27
2022-11-19T01:31:20.806Z,24.73
2022-11-19T01:33:47.724Z,21.97
2022-11-19T01:36:29.113Z,22.33
2022-11-19T01:38:56.718Z,25.57
2022-11-19T01:41:29.416Z,22.80
2022-11-19T01:43:59.731Z,22.40
2022-11-19T01:46:32.737Z,24.27
2022-11-19T01:49:04.116Z,22.13
2022-11-19T01:51:39.009Z,24.90
2022-11-19T01:54:12.422Z,21.67
2022-11-19T01:56:39.618Z,22.37
2022-11-19T01:59:11.542Z,23.30
2022-11-19T02:01:38.115Z,22.67
2022-11-19T02:04:06.243Z,20.63
2022-11-19T02:06:33.807Z,21.43
2022-11-19T02:09:00.280Z,24.77
2022-11-19T02:11:35.891Z,25.60
2022-11-19T02:14:30.054Z,23.83
2022-11-19T02:17:17.018Z,21.20
2022-11-19T02:20:01.888Z,23.10
2022-11-19T02:23:05.331Z,25.27
2022-11-19T02:25:50.432Z,24.80
2022-11-19T02:28:32.076Z,21.97
2022-11-19T02:31:08.543Z,30.10
2022-11-19T02:33:48.693Z,22.47
2022-11-19T02:36:44.426Z,18.87
2022-11-19T02:39:26.144Z,23.30
2022-11-19T02:42:00.163Z,23.63
2022-11-19T02:44:54.251Z,27.57
2022-11-19T02:47:25.564Z,25.43
2022-11-19T02:49:57.888Z,24.73
2022-11-19T02:52:24.456Z,21.07
2022-11-19T02:54:50.876Z,25.73
2022-11-19T02:57:17.332Z,28.43
2022-11-19T03:00:08.150Z,27.70
2022-11-19T03:03:01.534Z,25.20
2022-11-19T03:05:33.012Z,26.33
2022-11-19T03:08:00.112Z,28.20
2022-11-19T03:10:36.757Z,29.37
2022-11-19T03:13:34.114Z,26.37
2022-11-19T03:16:23.955Z,31.27
2022-11-19T03:18:56.818Z,27.40
2022-11-19T03:21:31.815Z,27.27
2022-11-19T03:24:02.814Z,30.90
2022-11-19T03:26:37.145Z,27.87
2022-11-19T03:29:10.293Z,26.13
2022-11-19T03:31:40.585Z,30.63
2022-11-19T03:34:18.388Z,31.90
2022-11-19T03:36:48.054Z,28.47
2022-11-19T03:39:18.469Z,27.87
2022-11-19T03:41:48.552Z,28.23
2022-11-19T03:44:23.744Z,29.87
2022-11-19T03:46:55.810Z,23.27
2022-11-19T03:49:27.923Z,26.40
2022-11-19T03:52:01.672Z,25.43
2022-11-19T03:54:28.665Z,25.13
2022-11-19T03:56:57.840Z,24.47
2022-11-19T03:59:29.447Z,28.73
2022-11-19T04:02:00.763Z,29.90
2022-11-19T04:04:36.911Z,26.53
2022-11-19T04:07:05.475Z,26.10
2022-11-19T04:09:31.969Z,25.83
2022-11-19T04:11:58.408Z,29.67
2022-11-19T04:14:24.831Z,30.70
2022-11-19T04:16:51.216Z,29.77
2022-11-19T04:19:18.451Z,28.07
2022-11-19T04:21:45.155Z,29.17
2022-11-19T04:24:11.843Z,28.40
2022-11-19T04:26:38.357Z,30.87
2022-11-19T04:29:04.813Z,33.20
2022-11-19T04:31:31.192Z,29.87
2022-11-19T04:33:57.561Z,31.23
2022-11-19T04:36:24.025Z,26.67
2022-11-19T04:38:50.488Z,29.60
2022-11-19T04:41:16.896Z,29.70
2022-11-19T04:43:43.277Z,29.07
2022-11-19T04:46:09.733Z,29.47
2022-11-19T04:48:36.125Z,28.07
2022-11-19T04:51:02.516Z,27.97
2022-11-19T04:53:29.018Z,27.93
2022-11-19T04:55:55.392Z,24.93
2022-11-19T04:58:21.828Z,26.70
2022-11-19T05:00:48.490Z,22.67
2022-11-19T05:03:15.222Z,26.20
2022-11-19T05:05:41.589Z,21.40
2022-11-19T05:08:08.064Z,22.83
2022-11-19T05:10:34.468Z,26.60
2022-11-19T05:13:01.981Z,23.43
2022-11-19T05:15:28.360Z,22.90
2022-11-19T05:17:54.759Z,21.17
2022-11-19T05:20:21.276Z,24.07
2022-11-19T05:22:47.672Z,23.90
2022-11-19T05:25:14.225Z,22.43
2022-11-19T05:27:40.725Z,23.77
2022-11-19T05:30:07.965Z,22.80
2022-11-19T05:32:36.754Z,22.73
2022-11-19T05:35:06.532Z,22.90
2022-11-19T05:37:32.905Z,23.53
2022-11-19T05:39:59.378Z,23.13
2022-11-19T05:42:25.796Z,24.27
2022-11-19T05:44:52.216Z,23.17
2022-11-19T05:47:18.698Z,20.70
2022-11-19T05:49:45.097Z,24.00
2022-11-19T05:52:12.176Z,23.57
2022-11-19T05:54:38.573Z,22.43
2022-11-19T05:57:05.725Z,23.23
2022-11-19T05:59:32.848Z,21.30
2022-11-19T06:01:59.373Z,22.30
2022-11-19T06:04:25.768Z,24.03
2022-11-19T06:06:52.144Z,23.53
2022-11-19T06:09:18.947Z,22.37
2022-11-19T06:11:48.197Z,22.87
2022-11-19T06:14:15.906Z,23.60
2022-11-19T06:16:42.625Z,22.03
2022-11-19T06:19:09.157Z,27.00
2022-11-19T06:21:35.834Z,23.33
2022-11-19T06:24:02.221Z,23.97
2022-11-19T06:26:29.281Z,22.87
2022-11-19T06:28:56.086Z,21.43
2022-11-19T06:31:23.112Z,22.90
2022-11-19T06:33:50.235Z,21.03
2022-11-19T06:36:16.792Z,22.47
2022-11-19T06:38:43.215Z,22.27
2022-11-19T06:41:09.676Z,18.00
2022-11-19T06:43:36.095Z,22.23
2022-11-19T06:46:02.623Z,21.77
2022-11-19T06:48:29.116Z,22.77
2022-11-19T06:50:55.676Z,23.17
2022-11-19T06:53:22.218Z,20.37
2022-11-19T06:55:48.620Z,22.87
2022-11-19T06:58:15.416Z,22.87
2022-11-19T07:00:42.162Z,21.50
2022-11-19T07:03:09.054Z,22.03
2022-11-19T07:05:35.579Z,21.83
2022-11-19T07:08:03.460Z,20.00
2022-11-19T07:10:30.372Z,23.27
2022-11-19T07:12:56.802Z,19.23
2022-11-19T07:15:23.186Z,18.97
2022-11-19T07:17:49.549Z,21.60
2022-11-19T07:20:16.719Z,20.60
2022-11-19T07:22:43.423Z,19.70
2022-11-19T07:25:13.012Z,19.23
2022-11-19T07:27:40.491Z,20.40
2022-11-19T07:30:07.851Z,19.30
2022-11-19T07:32:34.634Z,20.37
2022-11-19T07:35:01.056Z,22.87
2022-11-19T07:37:27.723Z,20.80
2022-11-19T07:39:54.104Z,18.73
2022-11-19T07:42:39.330Z,21.27
2022-11-19T07:45:06.291Z,20.90
2022-11-19T07:47:33.997Z,18.03
2022-11-19T07:50:00.450Z,19.47
2022-11-19T07:52:26.936Z,20.60
2022-11-19T07:54:53.354Z,21.70
2022-11-19T07:57:19.969Z,20.10
2022-11-19T07:59:46.426Z,17.63
2022-11-19T08:02:13.527Z,19.83
2022-11-19T08:04:40.077Z,20.57
2022-11-19T08:07:08.004Z,20.07
2022-11-19T08:09:34.573Z,18.17
2022-11-19T08:12:01.034Z,19.63
2022-11-19T08:14:27.507Z,22.40
2022-11-19T08:17:12.731Z,18.10
2022-11-19T08:19:39.161Z,19.27
2022-11-19T08:22:05.558Z,20.77
2022-11-19T08:24:31.960Z,18.43
2022-11-19T08:26:58.410Z,18.27
2022-11-19T08:29:24.974Z,18.37
2022-11-19T08:31:51.637Z,18.50
2022-11-19T08:34:18.568Z,16.47
2022-11-19T08:36:45.337Z,19.43
2022-11-19T08:39:11.918Z,17.90
2022-11-19T08:41:56.733Z,19.17
2022-11-19T08:44:24.612Z,19.20
2022-11-19T08:46:51.049Z,17.10
2022-11-19T08:49:17.523Z,18.83
2022-11-19T08:51:44.020Z,18.10
2022-11-19T08:54:10.539Z,18.40
2022-11-19T08:56:36.948Z,16.47
2022-11-19T08:59:03.738Z,18.97
2022-11-19T09:01:30.630Z,17.90
2022-11-19T09:03:57.160Z,19.30
2022-11-19T09:06:23.723Z,17.63
2022-11-19T09:08:50.467Z,16.17
2022-11-19T09:11:19.726Z,19.53
2022-11-19T09:13:46.615Z,20.40
2022-11-19T09:16:13.234Z,17.73
2022-11-19T09:18:41.926Z,20.57
2022-11-19T09:21:10.591Z,17.97
2022-11-19T09:23:37.122Z,16.17
2022-11-19T09:26:08.553Z,15.83
2022-11-19T09:28:35.602Z,19.27
2022-11-19T09:31:07.994Z,23.77
2022-11-19T09:33:39.982Z,21.20
2022-11-19T09:36:06.679Z,22.50
2022-11-19T09:38:35.220Z,19.77
2022-11-19T09:41:34.363Z,22.17
2022-11-19T09:44:24.055Z,17.80
2022-11-19T09:46:59.284Z,23.53
2022-11-19T09:49:34.130Z,18.70
2022-11-19T09:52:07.385Z,21.03
2022-11-19T09:54:34.804Z,19.57
2022-11-19T09:57:10.721Z,22.67
2022-11-19T09:59:39.791Z,20.90
2022-11-19T10:02:21.979Z,22.07
2022-11-19T10:04:50.718Z,19.93
2022-11-19T10:07:17.074Z,18.90
2022-11-19T10:09:56.164Z,16.30
2022-11-19T10:12:33.780Z,20.23
2022-11-19T10:15:03.554Z,18.43
2022-11-19T10:17:55.803Z,18.13
2022-11-19T10:20:42.512Z,19.77
2022-11-19T10:23:21.977Z,20.57
2022-11-19T10:25:51.876Z,18.20
2022-11-19T10:28:22.530Z,19.63
2022-11-19T10:30:51.715Z,18.00
2022-11-19T10:33:27.485Z,21.90
2022-11-19T10:36:03.128Z,18.30
2022-11-19T10:38:40.494Z,19.50
2022-11-19T10:41:25.415Z,17.07
2022-11-19T10:44:00.174Z,16.37
2022-11-19T10:46:28.872Z,18.47
2022-11-19T10:48:58.300Z,16.43
2022-11-19T10:51:40.403Z,16.60
2022-11-19T10:54:21.306Z,15.00
2022-11-19T10:56:49.996Z,16.70
2022-11-19T10:59:20.580Z,19.63
2022-11-19T11:01:56.368Z,14.40
2022-11-19T11:04:26.523Z,16.30
2022-11-19T11:06:57.675Z,16.50
2022-11-19T11:09:37.844Z,14.73
2022-11-19T11:12:32.473Z,14.07
2022-11-19T11:15:07.642Z,13.53
2022-11-19T11:17:36.552Z,14.53
2022-11-19T11:20:22.229Z,15.63
2022-11-19T11:22:50.745Z,15.00
2022-11-19T11:25:28.404Z,13.97
2022-11-19T11:28:16.141Z,14.47
2022-11-19T11:30:53.751Z,12.37
2022-11-19T11:33:35.523Z,14.40
2022-11-19T11:36:24.535Z,15.77
2022-11-19T11:38:54.301Z,11.10
2022-11-19T11:44:14.207Z,11.93
2022-11-19T11:46:45.164Z,12.63
2022-11-19T11:49:36.601Z,17.10
2022-11-19T11:52:09.508Z,12.83
2022-11-19T11:54:38.007Z,14.17
2022-11-19T11:57:49.770Z,15.07
2022-11-19T12:00:29.828Z,13.80
2022-11-19T12:03:03.910Z,11.40
2022-11-19T12:05:42.456Z,11.43
2022-11-19T12:08:26.704Z,14.23
2022-11-19T12:11:02.181Z,12.10
2022-11-19T12:14:06.585Z,10.53
2022-11-19T12:17:06.234Z,15.00
2022-11-19T12:20:03.645Z,12.50
2022-11-19T12:22:45.768Z,11.50
2022-11-19T12:25:53.968Z,11.83
2022-11-19T12:28:38.672Z,13.17
2022-11-19T12:31:17.633Z,12.27
2022-11-19T12:34:22.623Z,12.53
2022-11-19T12:37:15.510Z,11.37
2022-11-19T12:39:47.094Z,12.17
2022-11-19T12:42:33.394Z,9.90
2022-11-19T12:45:36.848Z,9.67
2022-11-19T12:48:15.510Z,8.93
2022-11-19T12:51:06.104Z,10.17
2022-11-19T12:53:41.155Z,9.70
2022-11-19T12:56:28.633Z,9.97
2022-11-19T12:59:13.868Z,12.03
2022-11-19T13:01:45.774Z,8.97
2022-11-19T13:04:24.651Z,10.10
2022-11-19T13:07:14.792Z,9.70
2022-11-19T13:09:48.899Z,9.97
2022-11-19T13:12:20.355Z,9.77
2022-11-19T13:14:55.326Z,8.93
2022-11-19T13:17:33.640Z,10.57
2022-11-19T13:20:11.298Z,10.07
2022-11-19T13:22:42.519Z,7.97
2022-11-19T13:25:24.286Z,11.47
2022-11-19T13:27:53.314Z,7.90
2022-11-19T13:30:26.784Z,11.30
2022-11-19T13:32:59.022Z,9.50
2022-11-19T13:35:32.698Z,7.53
2022-11-19T13:38:04.926Z,9.90
2022-11-19T13:40:45.380Z,9.33
2022-11-19T13:43:37.643Z,8.70
2022-11-19T13:46:15.812Z,7.90
2022-11-19T13:48:46.911Z,10.10
2022-11-19T13:51:48.413Z,9.10
2022-11-19T13:54:24.024Z,9.13
2022-11-19T13:56:53.340Z,11.50
2022-11-19T13:59:44.111Z,10.13
2022-11-19T14:02:10.574Z,8.57
2022-11-19T14:05:01.791Z,7.77
2022-11-19T14:07:47.147Z,9.80
2022-11-19T14:10:30.662Z,6.80
2022-11-19T14:13:23.705Z,7.37
2022-11-19T14:16:17.900Z,6.27
2022-11-19T14:19:08.289Z,7.70
2022-11-19T14:21:53.162Z,7.17
2022-11-19T14:24:44.175Z,6.57
2022-11-19T14:27:26.895Z,7.37
2022-11-19T14:29:58.385Z,6.97
2022-11-19T14:32:35.429Z,6.93
2022-11-19T14:35:01.914Z,7.67
2022-11-19T14:37:37.329Z,6.50
2022-11-19T14:40:13.785Z,7.33
2022-11-19T14:43:20.083Z,7.93
2022-11-19T14:46:24.340Z,7.93
2022-11-19T14:48:54.855Z,10.57
2022-11-19T14:51:30.036Z,6.67
2022-11-19T14:54:14.656Z,7.07
2022-11-19T14:56:43.254Z,10.43
2022-11-19T14:59:15.707Z,6.67
2022-11-19T15:02:18.018Z,10.13
2022-11-19T15:04:56.519Z,7.07
2022-11-19T15:07:38.771Z,6.53
2022-11-19T15:10:13.985Z,8.23
2022-11-19T15:12:43.494Z,8.43
2022-11-19T15:15:19.226Z,15.73
2022-11-19T15:18:17.776Z,8.97
2022-11-19T15:21:22.750Z,7.70
2022-11-19T15:24:00.644Z,8.77
2022-11-19T15:26:40.314Z,6.77
2022-11-19T15:29:26.226Z,6.83
2022-11-19T15:32:17.619Z,7.77
2022-11-19T15:35:35.105Z,10.70
2022-11-19T15:38:13.134Z,6.77
2022-11-19T15:40:45.139Z,7.87
2022-11-19T15:43:33.273Z,7.03
2022-11-19T15:46:11.302Z,9.00
2022-11-19T15:49:00.029Z,7.33
2022-11-19T15:51:26.593Z,9.60
2022-11-19T15:54:07.001Z,8.50
2022-11-19T15:56:38.629Z,8.27
2022-11-19T15:59:08.365Z,10.73
2022-11-19T16:01:35.872Z,10.50
2022-11-19T16:04:15.295Z,8.83
2022-11-19T16:06:48.891Z,11.13
2022-11-19T16:09:24.828Z,11.23
2022-11-19T16:12:11.192Z,9.27
2022-11-19T16:14:56.123Z,8.13
2022-11-19T16:17:41.773Z,8.90
2022-11-19T16:20:09.719Z,13.30
2022-11-19T16:22:51.113Z,8.57
2022-11-19T16:25:37.358Z,7.07
2022-11-19T16:28:06.997Z,7.33
2022-11-19T16:30:54.972Z,9.87
2022-11-19T16:33:26.936Z,10.10
2022-11-19T16:36:11.575Z,10.57
2022-11-19T16:38:41.762Z,6.73
2022-11-19T16:41:31.034Z,5.60
2022-11-19T16:43:59.366Z,5.70
2022-11-19T16:46:29.401Z,7.73
2022-11-19T16:48:57.872Z,8.30
2022-11-19T16:51:53.263Z,11.43
2022-11-19T16:54:50.949Z,5.70
2022-11-19T16:57:20.564Z,5.70
2022-11-19T16:59:50.812Z,7.77
2022-11-19T17:02:20.130Z,6.77
2022-11-19T17:04:49.295Z,7.10
2022-11-19T17:07:25.745Z,6.87
2022-11-19T17:10:14.041Z,8.10
2022-11-19T17:12:52.140Z,4.87
2022-11-19T17:15:38.870Z,7.30
2022-11-19T17:18:28.943Z,7.27
2022-11-19T17:20:58.622Z,8.43
2022-11-19T17:23:28.391Z,7.70
2022-11-19T17:26:00.934Z,7.70
2022-11-19T17:28:35.876Z,8.53
2022-11-19T17:31:06.379Z,8.97
2022-11-19T17:33:36.608Z,9.37
2022-11-19T17:36:12.253Z,8.47
2022-11-19T17:38:38.824Z,7.93
2022-11-19T17:41:07.346Z,7.90
2022-11-19T17:43:54.095Z,8.67
2022-11-19T17:46:22.039Z,8.50
2022-11-19T17:48:50.116Z,8.07
2022-11-19T17:51:19.391Z,7.43
2022-11-19T17:53:46.246Z,9.00
2022-11-19T17:56:27.950Z,7.23
2022-11-19T17:58:55.050Z,7.53
2022-11-19T18:01:22.084Z,7.23
2022-11-19T18:03:48.804Z,9.20
2022-11-19T18:06:16.810Z,8.17
2022-11-19T18:08:43.762Z,7.23
2022-11-19T18:11:15.911Z,8.63
2022-11-19T18:13:43.183Z,11.97
2022-11-19T18:16:13.354Z,9.23
2022-11-19T18:18:39.747Z,6.83
2022-11-19T18:21:08.718Z,8.87
2022-11-19T18:23:35.150Z,10.23
2022-11-19T18:26:01.589Z,8.43
2022-11-19T18:28:28.053Z,8.67
2022-11-19T18:30:54.550Z,9.10
2022-11-19T18:33:21.105Z,10.47
2022-11-19T18:35:47.497Z,8.77
2022-11-19T18:38:14.147Z,11.07
2022-11-19T18:40:42.199Z,9.33
2022-11-19T18:43:29.083Z,9.33
2022-11-19T18:45:55.478Z,9.40
2022-11-19T18:48:21.852Z,8.67
2022-11-19T18:50:48.201Z,8.87
2022-11-19T18:53:14.582Z,9.93
2022-11-19T18:55:41.147Z,7.13
2022-11-19T18:58:07.550Z,8.07
2022-11-19T19:00:33.921Z,9.03
2022-11-19T19:03:00.815Z,8.10
2022-11-19T19:05:27.245Z,7.30
2022-11-19T19:07:53.817Z,10.10
2022-11-19T19:10:20.200Z,9.93
2022-11-19T19:12:46.647Z,7.87
2022-11-19T19:15:13.240Z,7.87
2022-11-19T19:17:39.718Z,8.00
2022-11-19T19:20:06.651Z,7.40
2022-11-19T19:22:33.038Z,10.37
2022-11-19T19:24:59.418Z,7.60
2022-11-19T19:27:26.045Z,6.40
2022-11-19T19:29:52.449Z,6.70
2022-11-19T19:32:19.002Z,8.30
2022-11-19T19:34:45.463Z,8.57
2022-11-19T19:37:11.965Z,10.30
2022-11-19T19:39:38.422Z,9.60
2022-11-19T19:42:05.124Z,10.10
2022-11-19T19:44:31.667Z,8.37
2022-11-19T19:46:59.281Z,7.83
2022-11-19T19:49:25.776Z,11.53
2022-11-19T19:51:52.271Z,9.17
2022-11-19T19:54:18.729Z,13.83
2022-11-19T19:56:45.290Z,12.67
2022-11-19T19:59:12.835Z,12.27
2022-11-19T20:01:39.811Z,10.37
2022-11-19T20:04:09.907Z,12.43
2022-11-19T20:06:38.898Z,10.03
2022-11-19T20:09:08.774Z,11.80
2022-11-19T20:11:36.497Z,11.47
2022-11-19T20:14:03.550Z,10.47
2022-11-19T20:16:32.025Z,10.47
2022-11-19T20:19:00.358Z,12.33
2022-11-19T20:21:33.912Z,13.37
2022-11-19T20:24:00.719Z,9.37
2022-11-19T20:26:29.314Z,12.67
2022-11-19T20:28:58.222Z,10.30
2022-11-19T20:31:25.558Z,12.30
2022-11-19T20:33:55.280Z,11.70
2022-11-19T20:36:24.382Z,13.87
2022-11-19T20:38:51.851Z,11.00
2022-11-19T20:41:38.119Z,12.70
2022-11-19T20:44:20.893Z,12.30
2022-11-19T20:46:49.630Z,11.27
2022-11-19T20:49:17.604Z,9.50
2022-11-19T20:51:44.817Z,10.03
2022-11-19T20:54:12.286Z,10.17
2022-11-19T20:56:39.697Z,10.90
2022-11-19T20:59:06.259Z,11.80
2022-11-19T21:01:33.843Z,11.53
2022-11-19T21:04:01.721Z,13.83
2022-11-19T21:06:28.665Z,11.03
2022-11-19T21:08:55.068Z,11.87
2022-11-19T21:11:21.722Z,10.50
2022-11-19T21:13:48.105Z,10.33
2022-11-19T21:16:17.591Z,10.50
2022-11-19T21:18:44.566Z,13.03
2022-11-19T21:21:12.594Z,14.20
2022-11-19T21:23:39.735Z,14.90
2022-11-19T21:26:10.001Z,13.67
2022-11-19T21:28:36.848Z,12.80
2022-11-19T21:31:03.941Z,11.87
2022-11-19T21:33:30.480Z,14.63
2022-11-19T21:35:58.133Z,11.87
2022-11-19T21:38:25.848Z,10.33
2022-11-19T21:40:54.182Z,11.40
2022-11-19T21:43:21.901Z,11.13
2022-11-19T21:45:49.053Z,11.87
2022-11-19T21:48:15.932Z,15.40
2022-11-19T21:50:42.878Z,15.83
2022-11-19T21:53:11.013Z,12.37
2022-11-19T21:55:37.511Z,16.03
2022-11-19T21:58:07.901Z,14.60
2022-11-19T22:00:34.505Z,13.33
2022-11-19T22:03:01.158Z,9.50
2022-11-19T22:05:27.803Z,11.10
2022-11-19T22:07:54.490Z,11.20
2022-11-19T22:10:21.185Z,10.07
2022-11-19T22:12:47.655Z,11.70
2022-11-19T22:15:14.102Z,11.60
2022-11-19T22:17:40.685Z,13.87
2022-11-19T22:20:07.516Z,16.37
2022-11-19T22:22:34.296Z,12.40
2022-11-19T22:25:00.748Z,12.37
2022-11-19T22:27:30.129Z,13.23
2022-11-19T22:29:56.780Z,14.27
2022-11-19T22:32:23.291Z,11.97
2022-11-19T22:34:49.731Z,13.60
2022-11-19T22:37:16.098Z,10.07
2022-11-19T22:39:43.866Z,12.03
2022-11-19T22:42:10.371Z,8.77
2022-11-19T22:44:36.757Z,10.00
2022-11-19T22:47:03.198Z,10.93
2022-11-19T22:49:29.670Z,10.70
2022-11-19T22:51:56.104Z,10.83
2022-11-19T22:54:22.642Z,11.50
2022-11-19T22:56:49.067Z,10.87
2022-11-19T22:59:15.550Z,10.40
2022-11-19T23:01:41.920Z,11.33
2022-11-19T23:04:08.654Z,9.43
2022-11-19T23:06:36.763Z,11.00
2022-11-19T23:09:04.950Z,15.10
2022-11-19T23:11:50.065Z,10.37
2022-11-19T23:14:18.948Z,10.33
2022-11-19T23:16:45.904Z,10.43
2022-11-19T23:19:13.928Z,13.93
2022-11-19T23:21:41.009Z,12.87
2022-11-19T23:24:09.536Z,11.73
2022-11-19T23:26:36.741Z,12.17
2022-11-19T23:29:03.905Z,11.30
2022-11-19T23:31:37.507Z,14.33
2022-11-19T23:34:04.953Z,13.87
2022-11-19T23:36:34.316Z,17.73
2022-11-19T23:39:01.887Z,19.50
2022-11-19T23:41:31.707Z,12.33
2022-11-19T23:43:58.193Z,11.33
2022-11-19T23:46:30.206Z,15.10
2022-11-19T23:48:57.913Z,11.47
2022-11-19T23:51:30.107Z,11.97
2022-11-19T23:53:57.487Z,10.80
2022-11-19T23:56:25.644Z,11.93
2022-11-19T23:58:52.779Z,11.47
